Time;durP1;ratioP1;P1;durP2;ratioP2;P2;SDS_P1;SDS_P2;PMS_P1;PMS_P2;Temp;Humidity;BMP_temperature;BMP_pressure;BME280_temperature;BME280_humidity;BME280_pressure;Samples;Min_cycle;Max_cycle;Signal;HPM_P1;HPM_P2
2023/12/12 00:01:24;;;;;;;7.22;4.30;;;;;;;;;;5018868;28;20026;-67
2023/12/12 00:03:50;;;;;;;10.32;4.40;;;;;;;;;;5016865;28;20022;-69
2023/12/12 00:06:16;;;;;;;9.30;4.82;;;;;;;;;;5024538;28;20018;-67
2023/12/12 00:08:42;;;;;;;9.40;4.20;;;;;;;;;;5022574;28;20026;-70
2023/12/12 00:11:08;;;;;;;6.65;4.15;;;;;;;;;;5023782;28;20025;-67
2023/12/12 00:13:33;;;;;;;7.38;3.70;;;;;;;;;;5022034;28;20494;-68
2023/12/12 00:15:59;;;;;;;5.85;4.20;;;;;;;;;;5022976;28;20108;-68
2023/12/12 00:18:24;;;;;;;8.20;4.18;;;;;;;;;;5013185;28;20026;-68
2023/12/12 00:20:51;;;;;;;5.88;4.20;;;;;;;;;;5013355;28;20032;-67
2023/12/12 00:23:16;;;;;;;10.05;4.03;;;;;;;;;;5013729;28;20544;-67
2023/12/12 00:25:42;;;;;;;6.05;3.83;;;;;;;;;;5015963;28;20025;-68
2023/12/12 00:28:07;;;;;;;10.15;4.93;;;;;;;;;;5013506;28;20034;-67
2023/12/12 00:30:33;;;;;;;9.52;3.78;;;;;;;;;;5031167;28;20025;-70
2023/12/12 00:32:58;;;;;;;8.65;4.05;;;;;;;;;;5030641;28;20042;-68
2023/12/12 00:35:24;;;;;;;7.30;4.13;;;;;;;;;;5031933;28;20029;-68
2023/12/12 00:37:49;;;;;;;11.25;4.00;;;;;;;;;;5031442;28;20029;-68
2023/12/12 00:40:15;;;;;;;6.72;3.75;;;;;;;;;;5030005;28;20029;-68
2023/12/12 00:42:41;;;;;;;6.63;3.72;;;;;;;;;;5030528;28;20402;-68
2023/12/12 00:45:07;;;;;;;6.10;3.80;;;;;;;;;;5031610;28;20231;-69
2023/12/12 00:47:32;;;;;;;5.82;3.88;;;;;;;;;;5030299;28;20017;-68
2023/12/12 00:49:58;;;;;;;8.18;4.05;;;;;;;;;;5031120;28;20086;-68
2023/12/12 00:52:24;;;;;;;7.20;3.38;;;;;;;;;;5031610;28;20539;-68
2023/12/12 00:54:49;;;;;;;5.78;3.38;;;;;;;;;;5031436;28;20022;-70
2023/12/12 00:57:15;;;;;;;7.55;3.60;;;;;;;;;;5031610;28;20405;-72
2023/12/12 00:59:40;;;;;;;10.13;3.72;;;;;;;;;;5031995;28;20037;-68
2023/12/12 01:02:06;;;;;;;9.10;4.07;;;;;;;;;;5031360;28;20417;-67
2023/12/12 01:04:34;;;;;;;12.45;4.35;;;;;;;;;;5032072;28;20037;-71
2023/12/12 01:07:01;;;;;;;5.05;3.55;;;;;;;;;;5030629;28;20022;-70
2023/12/12 01:09:27;;;;;;;11.45;4.05;;;;;;;;;;5031724;28;20095;-71
2023/12/12 01:11:52;;;;;;;6.57;3.85;;;;;;;;;;5031478;28;20040;-72
2023/12/12 09:27:43;;;;;;;3.22;2.85;;;;;;;;;;5250070;23;20085;-70
2023/12/12 09:30:09;;;;;;;3.78;2.85;;;;;;;;;;4953725;29;20035;-71
2023/12/12 09:32:34;;;;;;;3.28;2.97;;;;;;;;;;4952595;29;20391;-73
2023/12/12 09:35:00;;;;;;;3.70;3.13;;;;;;;;;;4958677;28;20474;-71
2023/12/12 09:37:26;;;;;;;3.13;2.83;;;;;;;;;;4961606;28;20480;-73
2023/12/12 09:39:52;;;;;;;4.32;2.85;;;;;;;;;;4962997;28;20042;-71
2023/12/12 09:42:22;;;;;;;3.38;2.90;;;;;;;;;;4962432;28;20027;-71
2023/12/12 09:44:53;;;;;;;;;;;;;;;;;;4961088;28;20486;-72
2023/12/12 09:47:20;;;;;;;3.83;2.90;;;;;;;;;;4961513;28;19918;-72
2023/12/12 09:49:50;;;;;;;3.42;2.90;;;;;;;;;;4962338;28;20031;-72
2023/12/12 09:52:16;;;;;;;3.75;2.90;;;;;;;;;;4962021;28;20027;-72
2023/12/12 09:54:43;;;;;;;3.13;2.67;;;;;;;;;;4960823;28;20089;-72
2023/12/12 09:57:11;;;;;;;3.40;3.05;;;;;;;;;;4962538;28;20032;-70
2023/12/12 09:59:37;;;;;;;3.03;2.70;;;;;;;;;;4960390;28;20020;-71
2023/12/12 10:02:03;;;;;;;6.50;3.22;;;;;;;;;;4954713;28;20023;-70
2023/12/12 10:04:29;;;;;;;4.15;2.80;;;;;;;;;;4953990;29;20024;-68
2023/12/12 10:06:59;;;;;;;3.70;3.03;;;;;;;;;;4953639;29;20031;-67
2023/12/12 10:09:24;;;;;;;7.10;3.17;;;;;;;;;;4950367;29;20043;-69
2023/12/12 10:11:50;;;;;;;3.45;2.90;;;;;;;;;;4951519;28;20023;-68
2023/12/12 10:14:38;;;;;;;4.35;3.03;;;;;;;;;;4953810;28;20046;-69
2023/12/12 10:17:04;;;;;;;4.50;3.03;;;;;;;;;;4957569;29;20480;-69
2023/12/12 10:19:30;;;;;;;3.58;2.90;;;;;;;;;;4952658;29;20436;-72
2023/12/12 10:21:58;;;;;;;9.50;3.50;;;;;;;;;;4956989;29;20114;-71
2023/12/12 10:24:27;;;;;;;4.03;3.25;;;;;;;;;;4957295;29;20027;-69
2023/12/12 10:26:53;;;;;;;3.97;3.05;;;;;;;;;;4957210;28;20048;-70
2023/12/12 10:29:21;;;;;;;3.38;2.90;;;;;;;;;;4957554;29;20027;-72
2023/12/12 10:31:47;;;;;;;3.83;3.30;;;;;;;;;;4957133;29;20031;-70
2023/12/12 10:34:12;;;;;;;4.82;3.40;;;;;;;;;;4957386;29;20567;-69
2023/12/12 10:36:42;;;;;;;6.18;4.47;;;;;;;;;;4957304;29;20062;-69
2023/12/12 10:39:14;;;;;;;7.25;3.78;;;;;;;;;;4957277;29;20031;-70
2023/12/12 10:41:50;;;;;;;7.35;4.55;;;;;;;;;;4957252;29;20443;-73
2023/12/12 10:44:18;;;;;;;8.02;4.68;;;;;;;;;;4962304;29;20123;-73
2023/12/12 10:46:45;;;;;;;7.53;5.25;;;;;;;;;;4957776;29;20118;-73
2023/12/12 10:49:12;;;;;;;8.80;5.25;;;;;;;;;;4960527;28;20081;-77
2023/12/12 10:51:38;;;;;;;9.45;5.03;;;;;;;;;;4965625;28;20024;-74
2023/12/12 10:54:05;;;;;;;8.38;5.28;;;;;;;;;;4962086;28;20029;-74
2023/12/12 10:56:35;;;;;;;10.57;4.85;;;;;;;;;;4984074;28;20089;-75
2023/12/12 10:59:02;;;;;;;6.80;5.20;;;;;;;;;;4990117;28;20033;-75
2023/12/12 11:01:28;;;;;;;7.07;5.20;;;;;;;;;;4983329;28;20097;-75
2023/12/12 11:03:57;;;;;;;8.73;5.38;;;;;;;;;;4981290;28;20031;-75
2023/12/12 11:06:24;;;;;;;9.98;4.97;;;;;;;;;;4981917;28;20053;-76
2023/12/12 11:08:52;;;;;;;9.82;5.65;;;;;;;;;;4990393;28;20049;-76
2023/12/12 11:11:19;;;;;;;6.80;5.00;;;;;;;;;;4975957;28;20022;-75
2023/12/12 11:13:46;;;;;;;7.13;5.28;;;;;;;;;;4975757;28;20062;-75
2023/12/12 11:16:13;;;;;;;5.72;4.47;;;;;;;;;;4975706;28;20027;-76
2023/12/12 11:18:42;;;;;;;9.13;5.18;;;;;;;;;;4975650;28;20510;-75
2023/12/12 11:21:08;;;;;;;7.80;5.05;;;;;;;;;;4975665;28;20031;-76
2023/12/12 11:23:52;;;;;;;6.93;5.32;;;;;;;;;;4976082;28;20039;-75
2023/12/12 11:26:18;;;;;;;9.18;4.65;;;;;;;;;;4975285;28;20050;-74
2023/12/12 11:28:44;;;;;;;7.50;5.38;;;;;;;;;;4985522;28;20493;-76
2023/12/12 11:31:10;;;;;;;7.60;5.10;;;;;;;;;;4990101;28;20007;-76
2023/12/12 11:33:56;;;;;;;8.10;4.80;;;;;;;;;;4984447;28;20038;-76
2023/12/12 11:36:26;;;;;;;8.00;4.75;;;;;;;;;;4979967;28;20102;-76
2023/12/12 11:38:54;;;;;;;6.20;4.90;;;;;;;;;;4981956;28;20065;-75
2023/12/12 11:41:20;;;;;;;8.15;5.22;;;;;;;;;;4989070;28;20035;-77
2023/12/12 11:43:46;;;;;;;7.85;5.03;;;;;;;;;;4983434;28;20053;-75
2023/12/12 11:46:15;;;;;;;10.25;5.40;;;;;;;;;;4975730;28;20086;-75
2023/12/12 11:48:41;;;;;;;6.38;4.60;;;;;;;;;;4976329;28;20440;-75
2023/12/12 11:51:34;;;;;;;7.25;4.95;;;;;;;;;;4975131;28;20066;-75
2023/12/12 11:54:06;;;;;;;7.47;5.22;;;;;;;;;;4975126;28;20054;-74
2023/12/12 11:56:32;;;;;;;6.57;5.07;;;;;;;;;;4957751;28;20062;-74
2023/12/12 11:59:00;;;;;;;7.03;4.90;;;;;;;;;;4974816;28;20034;-75
2023/12/12 12:01:26;;;;;;;6.43;4.95;;;;;;;;;;4974900;28;20037;-75
2023/12/12 12:03:52;;;;;;;6.97;5.00;;;;;;;;;;4973449;28;20023;-76
2023/12/12 12:06:18;;;;;;;6.85;4.68;;;;;;;;;;4957955;28;20034;-75
2023/12/12 12:08:44;;;;;;;6.18;4.85;;;;;;;;;;4958148;28;20073;-75
2023/12/12 12:11:11;;;;;;;7.72;4.72;;;;;;;;;;4955329;29;20046;-74
2023/12/12 12:13:40;;;;;;;7.35;4.57;;;;;;;;;;4955527;28;20039;-74
2023/12/12 12:16:07;;;;;;;6.28;3.97;;;;;;;;;;4956023;28;20035;-74
2023/12/12 12:18:33;;;;;;;6.63;4.40;;;;;;;;;;4959729;28;20173;-75
2023/12/12 12:20:58;;;;;;;6.00;4.32;;;;;;;;;;4954046;28;20109;-74
2023/12/12 12:23:24;;;;;;;6.22;4.18;;;;;;;;;;4975904;28;20030;-75
2023/12/12 12:25:50;;;;;;;6.28;4.47;;;;;;;;;;4975251;28;20031;-74
2023/12/12 12:28:16;;;;;;;6.57;4.32;;;;;;;;;;4974424;28;20061;-76
2023/12/12 12:30:46;;;;;;;6.93;4.40;;;;;;;;;;4974478;28;20388;-75
2023/12/12 12:33:13;;;;;;;5.55;3.92;;;;;;;;;;4957026;28;20125;-74
2023/12/12 12:35:50;;;;;;;6.35;4.25;;;;;;;;;;4974296;28;20041;-75
2023/12/12 12:38:23;;;;;;;9.07;4.25;;;;;;;;;;4968978;28;20045;-75
2023/12/12 12:40:48;;;;;;;9.77;4.38;;;;;;;;;;4956255;28;20467;-76
2023/12/12 12:43:15;;;;;;;5.78;4.50;;;;;;;;;;4956031;29;20110;-75
2023/12/12 12:45:41;;;;;;;6.30;4.68;;;;;;;;;;4958152;29;20069;-75
2023/12/12 12:48:07;;;;;;;7.90;4.85;;;;;;;;;;4956612;28;20027;-75
2023/12/12 12:50:32;;;;;;;7.78;4.55;;;;;;;;;;4969141;28;20042;-73
2023/12/12 12:52:58;;;;;;;7.00;4.63;;;;;;;;;;4954221;28;20107;-74
2023/12/12 12:55:25;;;;;;;7.75;4.30;;;;;;;;;;4953771;28;20042;-74
2023/12/12 12:57:51;;;;;;;5.40;4.45;;;;;;;;;;4951815;28;20638;-74
2023/12/12 13:00:17;;;;;;;7.75;4.63;;;;;;;;;;4952341;28;20023;-75
2023/12/12 13:02:44;;;;;;;11.40;4.85;;;;;;;;;;4946808;28;20031;-73
2023/12/12 13:05:10;;;;;;;7.75;4.50;;;;;;;;;;4950279;28;20034;-73
2023/12/12 13:07:35;;;;;;;9.43;4.50;;;;;;;;;;4960253;28;20039;-74
2023/12/12 13:10:01;;;;;;;6.45;4.35;;;;;;;;;;4954894;29;20483;-75
2023/12/12 13:12:27;;;;;;;6.57;4.88;;;;;;;;;;4953546;28;20027;-74
2023/12/12 13:14:53;;;;;;;6.15;4.70;;;;;;;;;;4936326;29;20031;-74
2023/12/12 13:17:19;;;;;;;7.35;4.20;;;;;;;;;;4935711;29;20408;-73
2023/12/12 13:19:44;;;;;;;18.42;5.03;;;;;;;;;;4935468;29;20023;-73
2023/12/12 13:22:10;;;;;;;6.47;4.68;;;;;;;;;;4935224;29;20035;-72
2023/12/12 13:24:35;;;;;;;8.38;4.70;;;;;;;;;;4938800;29;20033;-75
2023/12/12 13:27:01;;;;;;;10.95;4.97;;;;;;;;;;4954146;29;20090;-73
2023/12/12 13:29:27;;;;;;;5.82;4.47;;;;;;;;;;4953224;29;20484;-73
2023/12/12 13:31:52;;;;;;;6.10;4.50;;;;;;;;;;4953399;29;20023;-73
2023/12/12 13:34:19;;;;;;;8.25;4.65;;;;;;;;;;4953271;29;20028;-73
2023/12/12 13:36:45;;;;;;;7.55;4.45;;;;;;;;;;4952046;29;20031;-74
2023/12/12 13:39:12;;;;;;;6.82;4.50;;;;;;;;;;4953577;29;20035;-73
2023/12/12 13:41:42;;;;;;;5.88;4.43;;;;;;;;;;4953763;29;20028;-73
2023/12/12 13:44:08;;;;;;;11.73;4.55;;;;;;;;;;4952809;29;20063;-73
2023/12/12 13:46:34;;;;;;;7.50;4.55;;;;;;;;;;4954430;29;20062;-73
2023/12/12 13:48:59;;;;;;;5.40;4.10;;;;;;;;;;4955482;28;20372;-72
2023/12/12 13:51:25;;;;;;;7.10;4.38;;;;;;;;;;4957930;29;20542;-73
2023/12/12 13:53:50;;;;;;;6.80;4.18;;;;;;;;;;4957823;29;20042;-73
2023/12/12 13:56:17;;;;;;;6.43;4.95;;;;;;;;;;4957931;29;20495;-73
2023/12/12 13:58:42;;;;;;;7.45;4.30;;;;;;;;;;4957207;29;20027;-73
2023/12/12 14:01:08;;;;;;;6.40;4.40;;;;;;;;;;4958649;29;20384;-73
2023/12/12 14:03:33;;;;;;;5.15;4.15;;;;;;;;;;4958726;29;20027;-73
2023/12/12 14:05:59;;;;;;;8.63;4.70;;;;;;;;;;4957930;29;20023;-73
2023/12/12 14:08:24;;;;;;;8.10;3.90;;;;;;;;;;4957690;29;20035;-73
2023/12/12 14:10:50;;;;;;;7.28;3.88;;;;;;;;;;4941891;29;20031;-73
2023/12/12 14:13:15;;;;;;;6.97;4.18;;;;;;;;;;4957553;29;20480;-73
2023/12/12 14:15:41;;;;;;;6.13;4.10;;;;;;;;;;4957589;29;20126;-73
2023/12/12 14:18:06;;;;;;;8.02;4.30;;;;;;;;;;4957793;29;20027;-73
2023/12/12 14:20:32;;;;;;;6.63;4.50;;;;;;;;;;4957780;29;20383;-73
2023/12/12 14:22:58;;;;;;;7.57;4.35;;;;;;;;;;4957329;29;20480;-73
2023/12/12 14:25:24;;;;;;;5.65;4.15;;;;;;;;;;4957448;29;20023;-73
2023/12/12 14:27:51;;;;;;;5.28;4.40;;;;;;;;;;4957186;29;20130;-73
2023/12/12 14:30:18;;;;;;;6.60;4.15;;;;;;;;;;4957269;29;20476;-73
2023/12/12 14:32:44;;;;;;;5.97;4.50;;;;;;;;;;4958245;29;20086;-73
2023/12/12 14:35:10;;;;;;;6.80;3.80;;;;;;;;;;4957348;29;20507;-73
2023/12/12 14:37:35;;;;;;;6.03;4.43;;;;;;;;;;4957183;29;20034;-73
2023/12/12 14:40:01;;;;;;;6.32;4.05;;;;;;;;;;4957033;29;20050;-73
2023/12/12 14:42:28;;;;;;;7.65;4.32;;;;;;;;;;4957258;29;20031;-73
2023/12/12 14:44:54;;;;;;;6.43;4.10;;;;;;;;;;4957058;29;20023;-73
2023/12/12 14:47:20;;;;;;;6.32;4.20;;;;;;;;;;4957064;29;20477;-73
2023/12/12 14:49:46;;;;;;;5.38;3.90;;;;;;;;;;4956903;29;20039;-73
2023/12/12 14:52:11;;;;;;;8.45;4.18;;;;;;;;;;4956874;29;20019;-73
2023/12/12 14:54:40;;;;;;;7.70;4.35;;;;;;;;;;4956882;29;20440;-73
2023/12/12 14:57:06;;;;;;;8.95;4.15;;;;;;;;;;4957136;29;20105;-73
2023/12/12 14:59:31;;;;;;;6.78;4.00;;;;;;;;;;4957093;29;20465;-73
2023/12/12 15:01:57;;;;;;;5.47;4.20;;;;;;;;;;4956081;28;20035;-73
2023/12/12 15:04:22;;;;;;;6.13;3.72;;;;;;;;;;4956880;29;20062;-73
2023/12/12 15:06:48;;;;;;;8.32;4.07;;;;;;;;;;4956908;29;20434;-73
2023/12/12 15:09:13;;;;;;;5.45;3.92;;;;;;;;;;4956589;29;20435;-73
2023/12/12 15:11:42;;;;;;;7.03;3.95;;;;;;;;;;4956474;29;20483;-73
2023/12/12 15:14:08;;;;;;;6.28;3.90;;;;;;;;;;4956536;29;20523;-72
2023/12/12 15:16:34;;;;;;;7.00;4.85;;;;;;;;;;4956540;29;20110;-73
2023/12/12 15:19:00;;;;;;;6.30;4.20;;;;;;;;;;4956612;29;20049;-73
2023/12/12 15:21:26;;;;;;;5.63;3.95;;;;;;;;;;4956352;29;20034;-73
2023/12/12 15:23:51;;;;;;;5.55;3.88;;;;;;;;;;4956418;29;20038;-73
2023/12/12 15:26:18;;;;;;;5.97;3.75;;;;;;;;;;4956282;29;20468;-73
2023/12/12 15:28:44;;;;;;;5.22;4.00;;;;;;;;;;4956505;29;20404;-73
2023/12/12 15:31:10;;;;;;;5.68;4.18;;;;;;;;;;4953816;29;20039;-73
2023/12/12 15:33:35;;;;;;;5.72;4.35;;;;;;;;;;4938425;29;20481;-71
2023/12/12 15:36:05;;;;;;;5.25;4.20;;;;;;;;;;4937409;29;20024;-71
2023/12/12 15:38:31;;;;;;;5.50;4.15;;;;;;;;;;4937099;29;20107;-71
2023/12/12 15:40:56;;;;;;;9.20;4.10;;;;;;;;;;4936792;29;20118;-69
2023/12/12 15:43:23;;;;;;;8.25;4.20;;;;;;;;;;4936845;29;20061;-71
2023/12/12 15:45:48;;;;;;;6.20;4.25;;;;;;;;;;4936341;29;20031;-72
2023/12/12 15:48:14;;;;;;;8.23;4.15;;;;;;;;;;4935074;29;20436;-73
2023/12/12 15:50:39;;;;;;;5.88;4.00;;;;;;;;;;4936837;29;20090;-71
2023/12/12 15:53:05;;;;;;;6.72;4.32;;;;;;;;;;4936379;29;20408;-72
2023/12/12 15:55:31;;;;;;;7.50;4.72;;;;;;;;;;4936474;29;20019;-71
2023/12/12 15:57:57;;;;;;;6.15;4.65;;;;;;;;;;4936585;29;20098;-71
2023/12/12 16:00:24;;;;;;;6.80;4.63;;;;;;;;;;4936241;29;20040;-73
2023/12/12 16:02:50;;;;;;;6.43;4.50;;;;;;;;;;4936402;29;20055;-71
2023/12/12 16:05:15;;;;;;;9.10;4.88;;;;;;;;;;4936347;29;20662;-72
2023/12/12 16:07:41;;;;;;;6.38;4.55;;;;;;;;;;4936218;29;20485;-71
2023/12/12 16:10:08;;;;;;;9.05;4.30;;;;;;;;;;4936272;29;20035;-73
2023/12/12 16:12:35;;;;;;;8.50;4.38;;;;;;;;;;4935259;29;20035;-73
2023/12/12 16:15:04;;;;;;;7.57;4.43;;;;;;;;;;4936121;29;20159;-74
2023/12/12 16:17:40;;;;;;;7.18;4.93;;;;;;;;;;4935992;29;20024;-71
2023/12/12 16:20:06;;;;;;;5.38;4.30;;;;;;;;;;4936002;29;20031;-71
2023/12/12 16:22:33;;;;;;;10.38;4.30;;;;;;;;;;4935840;29;20380;-73
2023/12/12 16:24:58;;;;;;;6.68;4.57;;;;;;;;;;4935795;29;20023;-71
2023/12/12 16:27:24;;;;;;;6.82;4.93;;;;;;;;;;4952434;29;20155;-71
2023/12/12 16:29:50;;;;;;;8.80;4.72;;;;;;;;;;4955063;29;20027;-72
2023/12/12 16:32:16;;;;;;;8.48;5.40;;;;;;;;;;4955088;29;20031;-73
2023/12/12 16:34:42;;;;;;;7.25;4.43;;;;;;;;;;4938038;29;20027;-74
2023/12/12 16:37:08;;;;;;;7.43;4.55;;;;;;;;;;4954958;29;20018;-72
2023/12/12 16:39:34;;;;;;;7.00;3.92;;;;;;;;;;4954927;29;20527;-71
2023/12/12 16:42:00;;;;;;;8.68;4.30;;;;;;;;;;4955171;29;20031;-72
2023/12/12 16:44:25;;;;;;;7.22;4.70;;;;;;;;;;4954733;29;20019;-71
2023/12/12 16:46:51;;;;;;;5.57;4.40;;;;;;;;;;4953931;29;20027;-72
2023/12/12 16:49:17;;;;;;;7.15;4.50;;;;;;;;;;4954707;29;20665;-73
2023/12/12 16:51:44;;;;;;;7.88;4.90;;;;;;;;;;4954462;29;20023;-74
2023/12/12 16:54:09;;;;;;;5.10;4.18;;;;;;;;;;4937510;29;20489;-72
2023/12/12 16:56:35;;;;;;;6.82;4.40;;;;;;;;;;4954941;29;20042;-72
2023/12/12 16:59:00;;;;;;;5.93;4.78;;;;;;;;;;4954676;29;20024;-74
2023/12/12 17:01:27;;;;;;;7.05;4.55;;;;;;;;;;4954580;29;20027;-71
2023/12/12 17:03:52;;;;;;;7.22;4.97;;;;;;;;;;4954726;29;20027;-70
2023/12/12 17:06:18;;;;;;;5.78;4.60;;;;;;;;;;4954234;29;20387;-73
2023/12/12 17:08:47;;;;;;;14.93;5.07;;;;;;;;;;4948322;29;20028;-73
2023/12/12 17:11:14;;;;;;;8.18;5.28;;;;;;;;;;4935355;29;20040;-72
2023/12/12 17:13:40;;;;;;;7.18;4.68;;;;;;;;;;4918328;29;20433;-73
2023/12/12 17:16:06;;;;;;;8.05;4.43;;;;;;;;;;4934441;29;20098;-72
2023/12/12 17:18:32;;;;;;;7.63;5.10;;;;;;;;;;4917751;29;20060;-72
2023/12/12 17:20:59;;;;;;;7.93;4.88;;;;;;;;;;4934531;29;20027;-71
2023/12/12 17:23:25;;;;;;;6.45;5.07;;;;;;;;;;4934628;29;20107;-73
2023/12/12 17:25:51;;;;;;;10.00;5.03;;;;;;;;;;4934975;29;20119;-72
2023/12/12 17:28:18;;;;;;;8.88;4.88;;;;;;;;;;4934839;29;20055;-71
2023/12/12 17:30:44;;;;;;;6.93;4.60;;;;;;;;;;4935152;29;20536;-72
2023/12/12 17:33:10;;;;;;;9.27;5.30;;;;;;;;;;4935264;29;20044;-73
2023/12/12 17:35:35;;;;;;;6.90;4.70;;;;;;;;;;4934891;29;20027;-72
2023/12/12 17:38:02;;;;;;;10.65;5.20;;;;;;;;;;4934878;29;20111;-72
2023/12/12 17:40:29;;;;;;;8.77;5.13;;;;;;;;;;4934932;29;20027;-72
2023/12/12 17:42:55;;;;;;;6.60;4.40;;;;;;;;;;4935201;29;20032;-72
2023/12/12 17:45:20;;;;;;;8.38;4.45;;;;;;;;;;4935172;29;20039;-72
2023/12/12 17:47:46;;;;;;;5.55;4.20;;;;;;;;;;4934871;29;20071;-71
2023/12/12 17:50:15;;;;;;;7.57;4.15;;;;;;;;;;4934928;29;20024;-72
2023/12/12 17:52:42;;;;;;;6.22;4.50;;;;;;;;;;4918506;29;20043;-71
2023/12/12 17:55:08;;;;;;;6.38;4.00;;;;;;;;;;4934968;29;20043;-72
2023/12/12 17:57:34;;;;;;;6.93;4.38;;;;;;;;;;4934681;29;20027;-73
2023/12/12 18:00:00;;;;;;;7.10;4.53;;;;;;;;;;4934867;29;20385;-72
2023/12/12 18:02:26;;;;;;;7.50;4.45;;;;;;;;;;4934671;29;20192;-73
2023/12/12 18:04:51;;;;;;;5.88;4.40;;;;;;;;;;4934699;29;20024;-72
2023/12/12 18:07:18;;;;;;;5.68;4.53;;;;;;;;;;4935083;29;20055;-72
2023/12/12 18:09:44;;;;;;;10.70;4.35;;;;;;;;;;4935114;29;20035;-71
2023/12/12 18:12:10;;;;;;;7.22;4.18;;;;;;;;;;4934685;29;20027;-72
2023/12/12 18:14:35;;;;;;;4.65;4.03;;;;;;;;;;4934978;29;20028;-71
2023/12/12 18:17:03;;;;;;;7.15;4.28;;;;;;;;;;4934476;29;20432;-71
2023/12/12 18:19:33;;;;;;;9.25;4.50;;;;;;;;;;4934631;29;20127;-72
2023/12/12 18:21:59;;;;;;;8.68;4.28;;;;;;;;;;4934631;29;20110;-72
2023/12/12 18:24:24;;;;;;;8.48;4.65;;;;;;;;;;4934501;29;20132;-71
2023/12/12 18:26:55;;;;;;;6.28;4.05;;;;;;;;;;4917396;29;20048;-72
2023/12/12 18:29:21;;;;;;;6.97;4.40;;;;;;;;;;4934349;29;20023;-72
2023/12/12 18:31:48;;;;;;;8.13;3.95;;;;;;;;;;4934194;29;20417;-71
2023/12/12 18:34:15;;;;;;;8.80;4.15;;;;;;;;;;4934369;29;20055;-72
2023/12/12 18:36:40;;;;;;;6.18;4.47;;;;;;;;;;4936526;29;20531;-72
2023/12/12 18:39:09;;;;;;;11.30;4.10;;;;;;;;;;4937525;29;20031;-72
2023/12/12 18:41:37;;;;;;;6.50;4.57;;;;;;;;;;4937783;29;20031;-73
2023/12/12 18:44:03;;;;;;;5.50;4.28;;;;;;;;;;4937725;29;20048;-72
2023/12/12 18:46:28;;;;;;;5.82;4.07;;;;;;;;;;4937500;29;20515;-72
2023/12/12 18:48:55;;;;;;;7.70;4.13;;;;;;;;;;4937798;29;20090;-71
2023/12/12 18:51:21;;;;;;;8.63;3.97;;;;;;;;;;4937508;29;20031;-71
2023/12/12 18:53:47;;;;;;;7.00;4.57;;;;;;;;;;4937735;29;20032;-72
2023/12/12 18:56:14;;;;;;;6.32;4.20;;;;;;;;;;4938027;29;20036;-72
2023/12/12 18:58:41;;;;;;;5.28;4.00;;;;;;;;;;4937565;29;20031;-72
2023/12/12 19:01:06;;;;;;;4.60;3.72;;;;;;;;;;4937339;29;20028;-72
2023/12/12 19:03:32;;;;;;;7.10;4.20;;;;;;;;;;4937840;29;20452;-71
2023/12/12 19:05:58;;;;;;;6.75;4.20;;;;;;;;;;4937455;29;20503;-73
2023/12/12 19:08:24;;;;;;;7.28;4.53;;;;;;;;;;4937029;29;20432;-73
2023/12/12 19:10:49;;;;;;;5.20;3.75;;;;;;;;;;4937239;29;20099;-71
2023/12/12 19:13:15;;;;;;;8.68;4.43;;;;;;;;;;4936928;29;20031;-71
2023/12/12 19:15:42;;;;;;;5.38;3.90;;;;;;;;;;4937441;29;20032;-72
2023/12/12 19:18:08;;;;;;;5.55;4.07;;;;;;;;;;4937418;29;20090;-72
2023/12/12 19:20:34;;;;;;;4.68;3.65;;;;;;;;;;4937369;29;20440;-72
2023/12/12 19:22:59;;;;;;;9.82;4.35;;;;;;;;;;4937040;29;20059;-72
2023/12/12 19:25:25;;;;;;;6.80;4.03;;;;;;;;;;4937300;29;20024;-72
2023/12/12 19:27:50;;;;;;;4.95;3.90;;;;;;;;;;4936964;29;20421;-72
2023/12/12 19:30:16;;;;;;;9.13;3.80;;;;;;;;;;4919833;29;20508;-71
2023/12/12 19:32:42;;;;;;;5.55;4.13;;;;;;;;;;4936697;29;20503;-73
2023/12/12 19:35:08;;;;;;;5.90;4.35;;;;;;;;;;4936577;29;20028;-71
2023/12/12 19:37:34;;;;;;;4.57;3.78;;;;;;;;;;4936768;29;20043;-73
2023/12/12 19:40:00;;;;;;;5.72;4.10;;;;;;;;;;4936700;29;20020;-72
2023/12/12 19:42:25;;;;;;;6.25;4.25;;;;;;;;;;4936701;29;20028;-72
2023/12/12 19:44:51;;;;;;;4.90;3.97;;;;;;;;;;4936585;29;20036;-73
2023/12/12 19:47:17;;;;;;;6.00;4.18;;;;;;;;;;4936633;29;20031;-71
2023/12/12 19:49:45;;;;;;;5.60;4.07;;;;;;;;;;4936710;29;20030;-73
2023/12/12 19:52:11;;;;;;;5.82;3.50;;;;;;;;;;4936305;29;20039;-73
2023/12/12 19:54:37;;;;;;;4.93;3.78;;;;;;;;;;4936436;29;20042;-72
2023/12/12 19:57:03;;;;;;;6.05;4.10;;;;;;;;;;4936219;29;20069;-73
2023/12/12 19:59:30;;;;;;;4.50;3.60;;;;;;;;;;4936320;29;20032;-72
2023/12/12 20:01:55;;;;;;;6.28;4.20;;;;;;;;;;4936576;29;20127;-72
2023/12/12 20:04:21;;;;;;;4.65;3.80;;;;;;;;;;4919080;29;20110;-71
2023/12/12 20:06:47;;;;;;;5.28;3.80;;;;;;;;;;4936163;29;20618;-72
2023/12/12 20:09:13;;;;;;;5.65;3.72;;;;;;;;;;4936232;29;20038;-71
2023/12/12 20:11:42;;;;;;;4.35;3.47;;;;;;;;;;4936093;29;20386;-73
2023/12/12 20:14:09;;;;;;;5.78;3.97;;;;;;;;;;4936508;29;20047;-73
2023/12/12 20:16:36;;;;;;;4.90;3.70;;;;;;;;;;4936194;29;20036;-74
2023/12/12 20:19:02;;;;;;;4.85;3.75;;;;;;;;;;4935834;29;20499;-72
2023/12/12 20:21:30;;;;;;;5.68;3.88;;;;;;;;;;4935979;29;20024;-73
2023/12/12 20:23:56;;;;;;;5.85;3.50;;;;;;;;;;4935916;29;20228;-72
2023/12/12 20:26:22;;;;;;;6.18;3.80;;;;;;;;;;4935713;29;20117;-72
2023/12/12 20:28:48;;;;;;;6.18;3.88;;;;;;;;;;4919045;29;20039;-72
2023/12/12 20:31:14;;;;;;;4.20;3.67;;;;;;;;;;4935935;29;20023;-73
2023/12/12 20:33:40;;;;;;;6.18;3.97;;;;;;;;;;4935709;29;20028;-72
2023/12/12 20:36:07;;;;;;;4.60;3.50;;;;;;;;;;4935828;29;20400;-73
2023/12/12 20:38:33;;;;;;;5.97;3.65;;;;;;;;;;4935990;29;20381;-73
2023/12/12 20:40:59;;;;;;;4.05;3.65;;;;;;;;;;4935725;29;20028;-74
2023/12/12 20:43:25;;;;;;;5.55;3.63;;;;;;;;;;4936027;29;20638;-73
2023/12/12 20:45:50;;;;;;;5.57;3.65;;;;;;;;;;4935647;29;20409;-73
2023/12/12 20:48:16;;;;;;;4.75;3.70;;;;;;;;;;4935822;29;20031;-73
2023/12/12 20:50:43;;;;;;;4.40;3.63;;;;;;;;;;4935652;29;20119;-72
2023/12/12 20:53:09;;;;;;;4.95;3.55;;;;;;;;;;4935383;29;20059;-74
2023/12/12 20:55:35;;;;;;;4.80;3.65;;;;;;;;;;4935806;29;20032;-72
2023/12/12 20:58:01;;;;;;;4.53;3.20;;;;;;;;;;4935644;29;20462;-73
2023/12/12 21:00:27;;;;;;;5.95;3.63;;;;;;;;;;4935157;29;20028;-64
2023/12/12 21:02:57;;;;;;;4.60;3.38;;;;;;;;;;4935335;29;20027;-67
2023/12/12 21:05:24;;;;;;;5.65;3.58;;;;;;;;;;4935408;29;20027;-66
2023/12/12 21:07:50;;;;;;;6.22;3.47;;;;;;;;;;4935257;29;20032;-65
2023/12/12 21:10:17;;;;;;;4.70;3.67;;;;;;;;;;4935308;29;20503;-65
2023/12/12 21:12:43;;;;;;;4.47;3.65;;;;;;;;;;4935301;29;20035;-65
2023/12/12 21:15:09;;;;;;;5.25;3.50;;;;;;;;;;4934985;29;20106;-64
2023/12/12 21:17:34;;;;;;;7.40;3.53;;;;;;;;;;4935239;29;20038;-64
2023/12/12 21:20:00;;;;;;;9.20;3.75;;;;;;;;;;4935669;29;20028;-64
2023/12/12 21:22:25;;;;;;;10.90;4.00;;;;;;;;;;4935398;29;20062;-65
2023/12/12 21:24:52;;;;;;;5.40;3.60;;;;;;;;;;4935145;29;20119;-65
2023/12/12 21:27:17;;;;;;;7.90;3.95;;;;;;;;;;4934740;29;20083;-63
2023/12/12 21:29:43;;;;;;;5.82;3.65;;;;;;;;;;4935094;29;20071;-65
2023/12/12 21:32:08;;;;;;;5.40;3.70;;;;;;;;;;4935072;29;20055;-64
2023/12/12 21:34:34;;;;;;;7.15;3.20;;;;;;;;;;4934994;29;20028;-64
2023/12/12 21:36:59;;;;;;;5.25;3.50;;;;;;;;;;4918063;29;20027;-64
2023/12/12 21:39:25;;;;;;;4.72;3.60;;;;;;;;;;4935046;29;20067;-64
2023/12/12 21:41:51;;;;;;;3.92;3.53;;;;;;;;;;4935224;29;20378;-64
2023/12/12 21:44:16;;;;;;;5.38;3.60;;;;;;;;;;4935062;29;20038;-65
2023/12/12 21:46:42;;;;;;;5.78;3.80;;;;;;;;;;4934997;29;20497;-63
2023/12/12 21:49:08;;;;;;;6.25;3.55;;;;;;;;;;4935061;29;20055;-64
2023/12/12 21:51:33;;;;;;;5.85;3.85;;;;;;;;;;4935248;29;20469;-63
2023/12/12 21:53:59;;;;;;;5.00;3.67;;;;;;;;;;4934815;29;20058;-64
2023/12/12 21:56:25;;;;;;;4.38;3.50;;;;;;;;;;4934946;29;20036;-64
2023/12/12 21:58:51;;;;;;;7.32;3.78;;;;;;;;;;4934813;29;20023;-64
2023/12/12 22:01:17;;;;;;;6.45;3.65;;;;;;;;;;4934844;29;20059;-65
2023/12/12 22:03:43;;;;;;;10.68;3.70;;;;;;;;;;4934728;29;20055;-64
2023/12/12 22:06:09;;;;;;;9.73;3.42;;;;;;;;;;4934828;29;20027;-65
2023/12/12 22:08:37;;;;;;;5.55;3.58;;;;;;;;;;4934700;29;20034;-63
2023/12/12 22:11:03;;;;;;;5.40;3.67;;;;;;;;;;4935731;29;20103;-64
2023/12/12 22:13:29;;;;;;;5.88;3.70;;;;;;;;;;4938596;29;20371;-64
2023/12/12 22:15:55;;;;;;;5.38;3.65;;;;;;;;;;4938304;29;20035;-64
2023/12/12 22:18:21;;;;;;;7.60;3.95;;;;;;;;;;4938080;29;20055;-65
2023/12/12 22:20:47;;;;;;;5.03;3.35;;;;;;;;;;4938215;29;20075;-65
2023/12/12 22:23:12;;;;;;;7.07;3.70;;;;;;;;;;4938431;29;20032;-65
2023/12/12 22:25:38;;;;;;;6.60;3.50;;;;;;;;;;4938382;29;20024;-64
2023/12/12 22:28:03;;;;;;;8.70;3.70;;;;;;;;;;4938002;29;20047;-65
2023/12/12 22:30:29;;;;;;;9.57;3.60;;;;;;;;;;4938623;29;20032;-63
2023/12/12 22:32:55;;;;;;;9.27;3.50;;;;;;;;;;4937833;29;20031;-63
2023/12/12 22:35:20;;;;;;;9.48;3.90;;;;;;;;;;4937941;29;20039;-64
2023/12/12 22:37:47;;;;;;;4.65;3.58;;;;;;;;;;4937996;29;20111;-64
2023/12/12 22:40:12;;;;;;;6.35;3.40;;;;;;;;;;4937899;29;20027;-64
2023/12/12 22:42:38;;;;;;;9.13;3.92;;;;;;;;;;4937850;29;20042;-65
2023/12/12 22:45:04;;;;;;;10.40;3.40;;;;;;;;;;4937712;29;20114;-73
2023/12/12 22:47:29;;;;;;;8.93;3.63;;;;;;;;;;4937703;29;20114;-72
2023/12/12 22:49:55;;;;;;;5.97;3.45;;;;;;;;;;4920736;29;20110;-73
2023/12/12 22:52:20;;;;;;;5.00;3.45;;;;;;;;;;4937847;29;20135;-72